sensor_id;sensor_type;location;lat;lon;timestamp;temperature;humidity
22006;DHT22;11167;46.988;15.470;2022-11-20T00:00:08;6.50;91.30
22006;DHT22;11167;46.988;15.470;2022-11-20T00:02:09;6.50;91.30
22006;DHT22;11167;46.988;15.470;2022-11-20T00:04:10;6.50;91.30
22006;DHT22;11167;46.988;15.470;2022-11-20T00:06:15;6.50;91.30
22006;DHT22;11167;46.988;15.470;2022-11-20T00:08:16;6.50;91.30
22006;DHT22;11167;46.988;15.470;2022-11-20T00:10:17;6.50;91.60
22006;DHT22;11167;46.988;15.470;2022-11-20T00:12:19;6.40;91.30
22006;DHT22;11167;46.988;15.470;2022-11-20T00:14:20;6.40;91.30
22006;DHT22;11167;46.988;15.470;2022-11-20T00:16:23;6.40;91.30
22006;DHT22;11167;46.988;15.470;2022-11-20T00:18:25;6.40;91.30
22006;DHT22;11167;46.988;15.470;2022-11-20T00:20:26;6.40;91.30
22006;DHT22;11167;46.988;15.470;2022-11-20T00:22:27;6.40;91.30
22006;DHT22;11167;46.988;15.470;2022-11-20T00:24:28;6.40;91.30
22006;DHT22;11167;46.988;15.470;2022-11-20T00:26:29;6.40;91.30
22006;DHT22;11167;46.988;15.470;2022-11-20T00:28:30;6.40;91.40
22006;DHT22;11167;46.988;15.470;2022-11-20T00:30:32;6.40;91.70
22006;DHT22;11167;46.988;15.470;2022-11-20T00:32:33;6.40;91.30
22006;DHT22;11167;46.988;15.470;2022-11-20T00:34:34;6.40;91.30
22006;DHT22;11167;46.988;15.470;2022-11-20T00:36:35;6.40;91.30
22006;DHT22;11167;46.988;15.470;2022-11-20T00:38:37;6.40;91.30
22006;DHT22;11167;46.988;15.470;2022-11-20T00:40:38;6.40;91.30
22006;DHT22;11167;46.988;15.470;2022-11-20T00:42:39;6.40;91.30
22006;DHT22;11167;46.988;15.470;2022-11-20T00:44:40;6.40;91.70
22006;DHT22;11167;46.988;15.470;2022-11-20T00:46:41;6.40;91.30
22006;DHT22;11167;46.988;15.470;2022-11-20T00:48:43;6.40;91.30
22006;DHT22;11167;46.988;15.470;2022-11-20T00:50:45;6.40;91.60
22006;DHT22;11167;46.988;15.470;2022-11-20T00:52:46;6.40;91.30
22006;DHT22;11167;46.988;15.470;2022-11-20T00:54:47;6.40;91.30
22006;DHT22;11167;46.988;15.470;2022-11-20T00:56:48;6.40;91.30
22006;DHT22;11167;46.988;15.470;2022-11-20T00:58:49;6.40;91.30
22006;DHT22;11167;46.988;15.470;2022-11-20T01:00:51;6.30;91.30
22006;DHT22;11167;46.988;15.470;2022-11-20T01:02:52;6.30;91.30
22006;DHT22;11167;46.988;15.470;2022-11-20T01:04:53;6.30;91.30
22006;DHT22;11167;46.988;15.470;2022-11-20T01:06:54;6.30;91.30
22006;DHT22;11167;46.988;15.470;2022-11-20T01:08:58;6.30;91.30
22006;DHT22;11167;46.988;15.470;2022-11-20T01:11:00;6.30;91.30
22006;DHT22;11167;46.988;15.470;2022-11-20T01:13:01;6.30;91.60
22006;DHT22;11167;46.988;15.470;2022-11-20T01:15:21;6.30;91.40
22006;DHT22;11167;46.988;15.470;2022-11-20T01:17:22;6.30;91.30
22006;DHT22;11167;46.988;15.470;2022-11-20T01:19:23;6.30;91.30
22006;DHT22;11167;46.988;15.470;2022-11-20T01:21:29;6.30;91.70
22006;DHT22;11167;46.988;15.470;2022-11-20T01:23:32;6.30;91.30
22006;DHT22;11167;46.988;15.470;2022-11-20T01:25:34;6.30;91.30
22006;DHT22;11167;46.988;15.470;2022-11-20T01:27:35;6.30;91.30
22006;DHT22;11167;46.988;15.470;2022-11-20T01:29:36;6.30;91.40
22006;DHT22;11167;46.988;15.470;2022-11-20T01:31:38;6.30;91.60
22006;DHT22;11167;46.988;15.470;2022-11-20T01:33:39;6.30;91.40
22006;DHT22;11167;46.988;15.470;2022-11-20T01:35:41;6.30;91.40
22006;DHT22;11167;46.988;15.470;2022-11-20T01:37:43;6.30;91.40
22006;DHT22;11167;46.988;15.470;2022-11-20T01:39:44;6.30;91.40
22006;DHT22;11167;46.988;15.470;2022-11-20T01:41:47;6.30;91.40
22006;DHT22;11167;46.988;15.470;2022-11-20T01:44:10;6.30;91.40
22006;DHT22;11167;46.988;15.470;2022-11-20T01:46:18;6.30;91.40
22006;DHT22;11167;46.988;15.470;2022-11-20T01:48:21;6.30;91.40
22006;DHT22;11167;46.988;15.470;2022-11-20T01:50:26;6.30;91.40
22006;DHT22;11167;46.988;15.470;2022-11-20T01:52:42;6.30;91.40
22006;DHT22;11167;46.988;15.470;2022-11-20T01:54:51;6.30;91.50
22006;DHT22;11167;46.988;15.470;2022-11-20T01:56:54;6.30;91.40
22006;DHT22;11167;46.988;15.470;2022-11-20T01:58:58;6.30;91.50
22006;DHT22;11167;46.988;15.470;2022-11-20T02:01:03;6.30;91.40
22006;DHT22;11167;46.988;15.470;2022-11-20T02:03:11;6.30;91.50
22006;DHT22;11167;46.988;15.470;2022-11-20T02:07:33;6.30;91.50
22006;DHT22;11167;46.988;15.470;2022-11-20T02:09:35;6.30;91.50
22006;DHT22;11167;46.988;15.470;2022-11-20T02:11:36;6.30;91.50
22006;DHT22;11167;46.988;15.470;2022-11-20T02:13:37;6.20;91.50
22006;DHT22;11167;46.988;15.470;2022-11-20T02:15:45;6.20;91.50
22006;DHT22;11167;46.988;15.470;2022-11-20T02:17:48;6.20;91.50
22006;DHT22;11167;46.988;15.470;2022-11-20T02:19:49;6.20;91.50
22006;DHT22;11167;46.988;15.470;2022-11-20T02:24:19;6.20;91.50
22006;DHT22;11167;46.988;15.470;2022-11-20T02:26:18;6.30;91.50
22006;DHT22;11167;46.988;15.470;2022-11-20T02:28:22;6.20;91.50
22006;DHT22;11167;46.988;15.470;2022-11-20T02:30:23;6.20;91.50
22006;DHT22;11167;46.988;15.470;2022-11-20T02:32:30;6.20;91.50
22006;DHT22;11167;46.988;15.470;2022-11-20T02:34:31;6.20;91.50
22006;DHT22;11167;46.988;15.470;2022-11-20T02:36:34;6.20;91.50
22006;DHT22;11167;46.988;15.470;2022-11-20T02:38:36;6.20;91.50
22006;DHT22;11167;46.988;15.470;2022-11-20T02:40:37;6.20;91.50
22006;DHT22;11167;46.988;15.470;2022-11-20T02:42:38;6.20;91.50
22006;DHT22;11167;46.988;15.470;2022-11-20T02:44:40;6.20;91.50
22006;DHT22;11167;46.988;15.470;2022-11-20T02:46:41;6.20;91.50
22006;DHT22;11167;46.988;15.470;2022-11-20T02:48:42;6.20;91.50
22006;DHT22;11167;46.988;15.470;2022-11-20T02:50:43;6.20;91.60
22006;DHT22;11167;46.988;15.470;2022-11-20T02:52:44;6.20;91.50
22006;DHT22;11167;46.988;15.470;2022-11-20T02:54:45;6.20;91.50
22006;DHT22;11167;46.988;15.470;2022-11-20T02:56:46;6.20;91.50
22006;DHT22;11167;46.988;15.470;2022-11-20T02:58:48;6.20;91.50
22006;DHT22;11167;46.988;15.470;2022-11-20T03:00:49;6.20;91.50
22006;DHT22;11167;46.988;15.470;2022-11-20T03:02:50;6.20;91.50
22006;DHT22;11167;46.988;15.470;2022-11-20T03:04:51;6.20;91.50
22006;DHT22;11167;46.988;15.470;2022-11-20T03:06:52;6.20;91.50
22006;DHT22;11167;46.988;15.470;2022-11-20T03:08:53;6.20;91.60
22006;DHT22;11167;46.988;15.470;2022-11-20T03:10:55;6.20;91.90
22006;DHT22;11167;46.988;15.470;2022-11-20T03:12:56;6.20;91.50
22006;DHT22;11167;46.988;15.470;2022-11-20T03:14:57;6.20;91.50
22006;DHT22;11167;46.988;15.470;2022-11-20T03:16:58;6.20;91.50
22006;DHT22;11167;46.988;15.470;2022-11-20T03:19:00;6.20;91.60
22006;DHT22;11167;46.988;15.470;2022-11-20T03:21:01;6.20;91.60
22006;DHT22;11167;46.988;15.470;2022-11-20T03:23:02;6.20;91.50
22006;DHT22;11167;46.988;15.470;2022-11-20T03:25:04;6.20;91.60
22006;DHT22;11167;46.988;15.470;2022-11-20T03:27:05;6.20;91.60
22006;DHT22;11167;46.988;15.470;2022-11-20T03:29:07;6.20;91.60
22006;DHT22;11167;46.988;15.470;2022-11-20T03:31:13;6.20;91.60
22006;DHT22;11167;46.988;15.470;2022-11-20T03:33:14;6.20;91.60
22006;DHT22;11167;46.988;15.470;2022-11-20T03:35:16;6.20;91.60
22006;DHT22;11167;46.988;15.470;2022-11-20T03:37:17;6.20;91.60
22006;DHT22;11167;46.988;15.470;2022-11-20T03:39:18;6.10;91.60
22006;DHT22;11167;46.988;15.470;2022-11-20T03:41:22;6.20;91.60
22006;DHT22;11167;46.988;15.470;2022-11-20T03:43:23;6.20;91.60
22006;DHT22;11167;46.988;15.470;2022-11-20T03:45:24;6.20;91.60
22006;DHT22;11167;46.988;15.470;2022-11-20T03:47:25;6.20;91.60
22006;DHT22;11167;46.988;15.470;2022-11-20T03:49:26;6.20;91.60
22006;DHT22;11167;46.988;15.470;2022-11-20T03:51:30;6.20;91.60
22006;DHT22;11167;46.988;15.470;2022-11-20T03:53:31;6.20;91.60
22006;DHT22;11167;46.988;15.470;2022-11-20T03:55:33;6.20;91.90
22006;DHT22;11167;46.988;15.470;2022-11-20T03:57:34;6.20;91.60
22006;DHT22;11167;46.988;15.470;2022-11-20T03:59:35;6.20;91.60
22006;DHT22;11167;46.988;15.470;2022-11-20T04:01:37;6.20;91.60
22006;DHT22;11167;46.988;15.470;2022-11-20T04:03:39;6.20;91.70
22006;DHT22;11167;46.988;15.470;2022-11-20T04:05:40;6.10;91.60
22006;DHT22;11167;46.988;15.470;2022-11-20T04:07:41;6.20;91.70
22006;DHT22;11167;46.988;15.470;2022-11-20T04:09:44;6.20;91.60
22006;DHT22;11167;46.988;15.470;2022-11-20T04:11:45;6.20;91.70
22006;DHT22;11167;46.988;15.470;2022-11-20T04:13:51;6.20;91.70
22006;DHT22;11167;46.988;15.470;2022-11-20T04:15:56;6.20;91.70
22006;DHT22;11167;46.988;15.470;2022-11-20T04:17:57;6.20;91.70
22006;DHT22;11167;46.988;15.470;2022-11-20T04:19:58;6.20;91.70
22006;DHT22;11167;46.988;15.470;2022-11-20T04:21:59;6.20;91.70
22006;DHT22;11167;46.988;15.470;2022-11-20T04:24:00;6.20;91.70
22006;DHT22;11167;46.988;15.470;2022-11-20T04:28:05;6.20;91.70
22006;DHT22;11167;46.988;15.470;2022-11-20T04:30:07;6.20;91.70
22006;DHT22;11167;46.988;15.470;2022-11-20T04:32:09;6.20;91.70
22006;DHT22;11167;46.988;15.470;2022-11-20T04:34:11;6.20;91.70
22006;DHT22;11167;46.988;15.470;2022-11-20T04:36:15;6.20;91.70
22006;DHT22;11167;46.988;15.470;2022-11-20T04:38:17;6.10;91.70
22006;DHT22;11167;46.988;15.470;2022-11-20T04:40:18;6.10;91.70
22006;DHT22;11167;46.988;15.470;2022-11-20T04:42:20;6.10;91.70
22006;DHT22;11167;46.988;15.470;2022-11-20T04:44:30;6.20;91.70
22006;DHT22;11167;46.988;15.470;2022-11-20T04:46:33;6.10;91.70
22006;DHT22;11167;46.988;15.470;2022-11-20T04:48:35;6.10;91.70
22006;DHT22;11167;46.988;15.470;2022-11-20T04:50:39;6.10;91.70
22006;DHT22;11167;46.988;15.470;2022-11-20T04:52:41;6.10;91.70
22006;DHT22;11167;46.988;15.470;2022-11-20T04:54:42;6.10;91.70
22006;DHT22;11167;46.988;15.470;2022-11-20T04:56:43;6.10;91.70
22006;DHT22;11167;46.988;15.470;2022-11-20T04:58:44;6.10;91.70
22006;DHT22;11167;46.988;15.470;2022-11-20T05:00:45;6.20;91.70
22006;DHT22;11167;46.988;15.470;2022-11-20T05:02:46;6.10;91.70
22006;DHT22;11167;46.988;15.470;2022-11-20T05:04:48;6.10;91.70
22006;DHT22;11167;46.988;15.470;2022-11-20T05:06:49;6.10;91.80
22006;DHT22;11167;46.988;15.470;2022-11-20T05:08:51;6.10;91.80
22006;DHT22;11167;46.988;15.470;2022-11-20T05:10:52;6.10;91.70
22006;DHT22;11167;46.988;15.470;2022-11-20T05:12:56;6.10;91.70
22006;DHT22;11167;46.988;15.470;2022-11-20T05:14:58;6.10;91.80
22006;DHT22;11167;46.988;15.470;2022-11-20T05:16:59;6.10;91.70
22006;DHT22;11167;46.988;15.470;2022-11-20T05:19:00;6.10;91.80
22006;DHT22;11167;46.988;15.470;2022-11-20T05:21:02;6.10;91.70
22006;DHT22;11167;46.988;15.470;2022-11-20T05:23:04;6.10;91.80
22006;DHT22;11167;46.988;15.470;2022-11-20T05:25:05;6.10;92.10
22006;DHT22;11167;46.988;15.470;2022-11-20T05:27:06;6.10;91.80
22006;DHT22;11167;46.988;15.470;2022-11-20T05:29:10;6.20;91.80
22006;DHT22;11167;46.988;15.470;2022-11-20T05:31:15;6.10;91.80
22006;DHT22;11167;46.988;15.470;2022-11-20T05:33:19;6.10;91.80
22006;DHT22;11167;46.988;15.470;2022-11-20T05:35:20;6.10;91.80
22006;DHT22;11167;46.988;15.470;2022-11-20T05:37:21;6.10;91.80
22006;DHT22;11167;46.988;15.470;2022-11-20T05:39:23;6.10;91.80
22006;DHT22;11167;46.988;15.470;2022-11-20T05:41:24;6.10;91.80
22006;DHT22;11167;46.988;15.470;2022-11-20T05:43:25;6.10;92.10
22006;DHT22;11167;46.988;15.470;2022-11-20T05:45:27;6.10;91.80
22006;DHT22;11167;46.988;15.470;2022-11-20T05:47:33;6.10;91.90
22006;DHT22;11167;46.988;15.470;2022-11-20T05:49:37;6.10;91.80
22006;DHT22;11167;46.988;15.470;2022-11-20T05:51:40;6.10;91.80
22006;DHT22;11167;46.988;15.470;2022-11-20T05:53:42;6.10;92.10
22006;DHT22;11167;46.988;15.470;2022-11-20T05:55:43;6.10;91.80
22006;DHT22;11167;46.988;15.470;2022-11-20T05:57:44;6.10;91.80
22006;DHT22;11167;46.988;15.470;2022-11-20T05:59:45;6.10;91.80
22006;DHT22;11167;46.988;15.470;2022-11-20T06:01:46;6.10;91.80
22006;DHT22;11167;46.988;15.470;2022-11-20T06:03:48;6.10;91.80
22006;DHT22;11167;46.988;15.470;2022-11-20T06:05:51;6.10;91.90
22006;DHT22;11167;46.988;15.470;2022-11-20T06:08:12;6.10;91.80
22006;DHT22;11167;46.988;15.470;2022-11-20T06:10:13;6.10;91.80
22006;DHT22;11167;46.988;15.470;2022-11-20T06:12:14;6.10;91.90
22006;DHT22;11167;46.988;15.470;2022-11-20T06:14:15;6.10;91.90
22006;DHT22;11167;46.988;15.470;2022-11-20T06:16:18;6.10;91.90
22006;DHT22;11167;46.988;15.470;2022-11-20T06:18:20;6.10;91.90
22006;DHT22;11167;46.988;15.470;2022-11-20T06:20:21;6.10;91.90
22006;DHT22;11167;46.988;15.470;2022-11-20T06:22:25;6.10;91.90
22006;DHT22;11167;46.988;15.470;2022-11-20T06:24:28;6.10;91.90
22006;DHT22;11167;46.988;15.470;2022-11-20T06:26:30;6.10;91.90
22006;DHT22;11167;46.988;15.470;2022-11-20T06:28:31;6.10;91.90
22006;DHT22;11167;46.988;15.470;2022-11-20T06:30:32;6.10;91.90
22006;DHT22;11167;46.988;15.470;2022-11-20T06:32:34;6.10;91.90
22006;DHT22;11167;46.988;15.470;2022-11-20T06:34:35;6.10;91.90
22006;DHT22;11167;46.988;15.470;2022-11-20T06:36:36;6.10;91.90
22006;DHT22;11167;46.988;15.470;2022-11-20T06:38:39;6.10;91.90
22006;DHT22;11167;46.988;15.470;2022-11-20T06:40:42;6.10;91.90
22006;DHT22;11167;46.988;15.470;2022-11-20T06:42:43;6.10;91.90
22006;DHT22;11167;46.988;15.470;2022-11-20T06:44:44;6.10;91.90
22006;DHT22;11167;46.988;15.470;2022-11-20T06:46:46;6.10;91.90
22006;DHT22;11167;46.988;15.470;2022-11-20T06:48:48;6.10;91.90
22006;DHT22;11167;46.988;15.470;2022-11-20T06:50:49;6.10;91.90
22006;DHT22;11167;46.988;15.470;2022-11-20T06:52:51;6.10;91.90
22006;DHT22;11167;46.988;15.470;2022-11-20T06:54:52;6.10;91.90
22006;DHT22;11167;46.988;15.470;2022-11-20T06:56:53;6.10;91.90
22006;DHT22;11167;46.988;15.470;2022-11-20T06:58:54;6.10;91.90
22006;DHT22;11167;46.988;15.470;2022-11-20T07:01:01;6.10;91.90
22006;DHT22;11167;46.988;15.470;2022-11-20T07:03:07;6.10;91.90
22006;DHT22;11167;46.988;15.470;2022-11-20T07:05:09;6.10;91.90
22006;DHT22;11167;46.988;15.470;2022-11-20T07:07:10;6.10;91.90
22006;DHT22;11167;46.988;15.470;2022-11-20T07:09:11;6.10;91.90
22006;DHT22;11167;46.988;15.470;2022-11-20T07:11:12;6.10;91.90
22006;DHT22;11167;46.988;15.470;2022-11-20T07:13:14;6.10;91.90
22006;DHT22;11167;46.988;15.470;2022-11-20T07:15:15;6.10;91.90
22006;DHT22;11167;46.988;15.470;2022-11-20T07:17:16;6.10;91.90
22006;DHT22;11167;46.988;15.470;2022-11-20T07:19:17;6.10;91.90
22006;DHT22;11167;46.988;15.470;2022-11-20T07:21:18;6.10;91.90
22006;DHT22;11167;46.988;15.470;2022-11-20T07:23:19;6.10;91.90
22006;DHT22;11167;46.988;15.470;2022-11-20T07:25:21;6.10;92.10
22006;DHT22;11167;46.988;15.470;2022-11-20T07:27:23;6.10;92.00
22006;DHT22;11167;46.988;15.470;2022-11-20T07:29:24;6.10;91.90
22006;DHT22;11167;46.988;15.470;2022-11-20T07:31:25;6.10;91.90
22006;DHT22;11167;46.988;15.470;2022-11-20T07:33:26;6.10;91.90
22006;DHT22;11167;46.988;15.470;2022-11-20T07:35:27;6.10;92.10
22006;DHT22;11167;46.988;15.470;2022-11-20T07:37:28;6.10;91.90
22006;DHT22;11167;46.988;15.470;2022-11-20T07:39:29;6.10;91.90
22006;DHT22;11167;46.988;15.470;2022-11-20T07:41:31;6.10;91.90
22006;DHT22;11167;46.988;15.470;2022-11-20T07:43:32;6.10;91.90
22006;DHT22;11167;46.988;15.470;2022-11-20T07:45:33;6.10;91.90
22006;DHT22;11167;46.988;15.470;2022-11-20T07:47:35;6.10;91.90
22006;DHT22;11167;46.988;15.470;2022-11-20T07:49:37;6.10;91.90
22006;DHT22;11167;46.988;15.470;2022-11-20T07:51:39;6.10;91.90
22006;DHT22;11167;46.988;15.470;2022-11-20T07:53:40;6.10;91.90
22006;DHT22;11167;46.988;15.470;2022-11-20T07:55:41;6.10;92.00
22006;DHT22;11167;46.988;15.470;2022-11-20T07:57:42;6.10;92.00
22006;DHT22;11167;46.988;15.470;2022-11-20T07:59:43;6.10;92.00
22006;DHT22;11167;46.988;15.470;2022-11-20T08:01:46;6.10;92.00
22006;DHT22;11167;46.988;15.470;2022-11-20T08:03:48;6.10;92.00
22006;DHT22;11167;46.988;15.470;2022-11-20T08:05:49;6.10;92.00
22006;DHT22;11167;46.988;15.470;2022-11-20T08:07:50;6.10;92.00
22006;DHT22;11167;46.988;15.470;2022-11-20T08:09:51;6.10;92.00
22006;DHT22;11167;46.988;15.470;2022-11-20T08:11:52;6.10;92.00
22006;DHT22;11167;46.988;15.470;2022-11-20T08:14:11;6.10;92.00
22006;DHT22;11167;46.988;15.470;2022-11-20T08:16:13;6.10;92.00
22006;DHT22;11167;46.988;15.470;2022-11-20T08:18:15;6.10;92.00
22006;DHT22;11167;46.988;15.470;2022-11-20T08:20:16;6.10;92.00
22006;DHT22;11167;46.988;15.470;2022-11-20T08:22:17;6.10;92.00
22006;DHT22;11167;46.988;15.470;2022-11-20T08:24:18;6.10;92.00
22006;DHT22;11167;46.988;15.470;2022-11-20T08:26:21;6.20;92.10
22006;DHT22;11167;46.988;15.470;2022-11-20T08:28:22;6.10;92.00
22006;DHT22;11167;46.988;15.470;2022-11-20T08:30:23;6.20;92.10
22006;DHT22;11167;46.988;15.470;2022-11-20T08:32:24;6.20;92.00
22006;DHT22;11167;46.988;15.470;2022-11-20T08:34:25;6.20;92.00
22006;DHT22;11167;46.988;15.470;2022-11-20T08:36:26;6.20;92.00
22006;DHT22;11167;46.988;15.470;2022-11-20T08:38:28;6.20;92.10
22006;DHT22;11167;46.988;15.470;2022-11-20T08:40:30;6.20;92.10
22006;DHT22;11167;46.988;15.470;2022-11-20T08:42:33;6.20;92.10
22006;DHT22;11167;46.988;15.470;2022-11-20T08:44:35;6.20;92.10
22006;DHT22;11167;46.988;15.470;2022-11-20T08:46:55;6.20;92.10
22006;DHT22;11167;46.988;15.470;2022-11-20T08:48:57;6.10;92.10
22006;DHT22;11167;46.988;15.470;2022-11-20T08:50:59;6.20;92.10
22006;DHT22;11167;46.988;15.470;2022-11-20T08:53:04;6.20;92.10
22006;DHT22;11167;46.988;15.470;2022-11-20T08:55:06;6.20;92.10
22006;DHT22;11167;46.988;15.470;2022-11-20T08:57:08;6.20;92.10
22006;DHT22;11167;46.988;15.470;2022-11-20T08:59:09;6.20;92.10
22006;DHT22;11167;46.988;15.470;2022-11-20T09:01:10;6.20;92.10
22006;DHT22;11167;46.988;15.470;2022-11-20T09:03:11;6.20;92.10
22006;DHT22;11167;46.988;15.470;2022-11-20T09:05:14;6.20;92.10
22006;DHT22;11167;46.988;15.470;2022-11-20T09:07:15;6.20;92.10
22006;DHT22;11167;46.988;15.470;2022-11-20T09:09:17;6.20;92.10
22006;DHT22;11167;46.988;15.470;2022-11-20T09:11:19;6.20;92.10
22006;DHT22;11167;46.988;15.470;2022-11-20T09:13:23;6.20;92.10
22006;DHT22;11167;46.988;15.470;2022-11-20T09:15:25;6.20;92.10
22006;DHT22;11167;46.988;15.470;2022-11-20T09:17:27;6.20;92.50
22006;DHT22;11167;46.988;15.470;2022-11-20T09:19:28;6.20;92.20
22006;DHT22;11167;46.988;15.470;2022-11-20T09:21:29;6.30;92.20
22006;DHT22;11167;46.988;15.470;2022-11-20T09:23:35;6.30;92.20
22006;DHT22;11167;46.988;15.470;2022-11-20T09:25:36;6.30;92.20
22006;DHT22;11167;46.988;15.470;2022-11-20T09:27:37;6.30;92.20
22006;DHT22;11167;46.988;15.470;2022-11-20T09:29:38;6.30;92.20
22006;DHT22;11167;46.988;15.470;2022-11-20T09:31:42;6.30;92.20
22006;DHT22;11167;46.988;15.470;2022-11-20T09:33:44;6.20;92.20
22006;DHT22;11167;46.988;15.470;2022-11-20T09:35:45;6.30;92.30
22006;DHT22;11167;46.988;15.470;2022-11-20T09:37:50;6.30;92.20
22006;DHT22;11167;46.988;15.470;2022-11-20T09:40:04;6.30;92.30
22006;DHT22;11167;46.988;15.470;2022-11-20T09:46:58;6.30;92.30
22006;DHT22;11167;46.988;15.470;2022-11-20T09:49:06;6.30;92.50
22006;DHT22;11167;46.988;15.470;2022-11-20T09:51:23;6.30;92.30
22006;DHT22;11167;46.988;15.470;2022-11-20T09:55:55;6.30;92.30
22006;DHT22;11167;46.988;15.470;2022-11-20T10:00:22;6.30;92.40
22006;DHT22;11167;46.988;15.470;2022-11-20T10:03:16;6.30;92.40
22006;DHT22;11167;46.988;15.470;2022-11-20T10:04:35;6.30;92.40
22006;DHT22;11167;46.988;15.470;2022-11-20T10:06:42;6.40;92.40
22006;DHT22;11167;46.988;15.470;2022-11-20T10:08:48;6.40;92.40
22006;DHT22;11167;46.988;15.470;2022-11-20T10:26:29;6.50;92.40
22006;DHT22;11167;46.988;15.470;2022-11-20T10:32:28;6.50;92.40
22006;DHT22;11167;46.988;15.470;2022-11-20T10:33:41;6.50;92.40
22006;DHT22;11167;46.988;15.470;2022-11-20T10:35:55;6.50;92.50
22006;DHT22;11167;46.988;15.470;2022-11-20T10:37:54;6.50;92.50
22006;DHT22;11167;46.988;15.470;2022-11-20T10:42:17;6.50;92.40
22006;DHT22;11167;46.988;15.470;2022-11-20T10:44:27;6.50;92.40
22006;DHT22;11167;46.988;15.470;2022-11-20T10:46:47;6.50;92.50
22006;DHT22;11167;46.988;15.470;2022-11-20T10:48:49;6.60;92.50
22006;DHT22;11167;46.988;15.470;2022-11-20T11:00:05;6.60;92.40
22006;DHT22;11167;46.988;15.470;2022-11-20T11:02:34;6.60;92.40
22006;DHT22;11167;46.988;15.470;2022-11-20T11:04:45;6.70;92.50
22006;DHT22;11167;46.988;15.470;2022-11-20T11:06:48;6.70;92.50
22006;DHT22;11167;46.988;15.470;2022-11-20T11:08:51;6.70;92.50
22006;DHT22;11167;46.988;15.470;2022-11-20T11:13:27;6.70;92.50
22006;DHT22;11167;46.988;15.470;2022-11-20T11:15:38;6.70;92.50
22006;DHT22;11167;46.988;15.470;2022-11-20T11:17:47;6.80;92.90
22006;DHT22;11167;46.988;15.470;2022-11-20T11:22:10;6.80;92.50
22006;DHT22;11167;46.988;15.470;2022-11-20T11:24:28;6.80;92.50
22006;DHT22;11167;46.988;15.470;2022-11-20T11:26:24;6.80;92.50
22006;DHT22;11167;46.988;15.470;2022-11-20T11:28:28;6.80;92.50
22006;DHT22;11167;46.988;15.470;2022-11-20T11:30:40;6.80;92.50
22006;DHT22;11167;46.988;15.470;2022-11-20T11:32:34;6.90;92.50
22006;DHT22;11167;46.988;15.470;2022-11-20T11:34:36;6.90;92.50
22006;DHT22;11167;46.988;15.470;2022-11-20T11:36:38;6.90;92.50
22006;DHT22;11167;46.988;15.470;2022-11-20T11:38:41;6.90;92.50
22006;DHT22;11167;46.988;15.470;2022-11-20T11:40:46;6.90;92.50
22006;DHT22;11167;46.988;15.470;2022-11-20T11:42:54;6.90;92.50
22006;DHT22;11167;46.988;15.470;2022-11-20T11:44:57;7.00;92.50
22006;DHT22;11167;46.988;15.470;2022-11-20T11:49:23;7.00;92.50
22006;DHT22;11167;46.988;15.470;2022-11-20T11:51:31;7.00;92.60
22006;DHT22;11167;46.988;15.470;2022-11-20T11:53:30;7.00;92.60
22006;DHT22;11167;46.988;15.470;2022-11-20T11:55:35;7.00;92.60
22006;DHT22;11167;46.988;15.470;2022-11-20T11:58:09;7.10;92.60
22006;DHT22;11167;46.988;15.470;2022-11-20T12:00:15;7.10;92.60
22006;DHT22;11167;46.988;15.470;2022-11-20T12:02:48;7.10;92.60
22006;DHT22;11167;46.988;15.470;2022-11-20T12:07:20;7.20;92.70
22006;DHT22;11167;46.988;15.470;2022-11-20T12:09:20;7.20;92.80
22006;DHT22;11167;46.988;15.470;2022-11-20T12:11:55;7.30;92.80
22006;DHT22;11167;46.988;15.470;2022-11-20T12:14:20;7.30;92.80
22006;DHT22;11167;46.988;15.470;2022-11-20T12:16:24;7.40;92.80
22006;DHT22;11167;46.988;15.470;2022-11-20T12:18:25;7.40;92.80
22006;DHT22;11167;46.988;15.470;2022-11-20T12:20:34;7.40;92.90
22006;DHT22;11167;46.988;15.470;2022-11-20T12:22:48;7.50;92.90
22006;DHT22;11167;46.988;15.470;2022-11-20T12:34:47;7.70;93.10
22006;DHT22;11167;46.988;15.470;2022-11-20T12:41:15;7.80;93.10
22006;DHT22;11167;46.988;15.470;2022-11-20T12:43:25;7.90;93.20
22006;DHT22;11167;46.988;15.470;2022-11-20T12:53:33;8.10;93.30
22006;DHT22;11167;46.988;15.470;2022-11-20T12:58:20;8.30;93.40
22006;DHT22;11167;46.988;15.470;2022-11-20T13:00:19;8.30;93.40
22006;DHT22;11167;46.988;15.470;2022-11-20T13:02:27;8.40;93.40
22006;DHT22;11167;46.988;15.470;2022-11-20T13:06:56;8.50;93.50
22006;DHT22;11167;46.988;15.470;2022-11-20T13:08:58;8.60;93.50
22006;DHT22;11167;46.988;15.470;2022-11-20T13:11:17;8.60;93.50
22006;DHT22;11167;46.988;15.470;2022-11-20T13:13:23;8.70;93.50
22006;DHT22;11167;46.988;15.470;2022-11-20T13:15:39;8.80;93.60
22006;DHT22;11167;46.988;15.470;2022-11-20T13:17:54;8.80;93.60
22006;DHT22;11167;46.988;15.470;2022-11-20T13:19:56;8.90;93.60
22006;DHT22;11167;46.988;15.470;2022-11-20T13:22:00;9.00;93.60
22006;DHT22;11167;46.988;15.470;2022-11-20T13:24:06;9.00;93.60
22006;DHT22;11167;46.988;15.470;2022-11-20T13:26:19;9.10;93.70
22006;DHT22;11167;46.988;15.470;2022-11-20T13:30:25;9.20;93.70
22006;DHT22;11167;46.988;15.470;2022-11-20T13:32:27;9.30;93.80
22006;DHT22;11167;46.988;15.470;2022-11-20T13:34:30;9.30;93.70
22006;DHT22;11167;46.988;15.470;2022-11-20T13:36:31;9.40;93.80
22006;DHT22;11167;46.988;15.470;2022-11-20T13:38:46;9.50;93.80
22006;DHT22;11167;46.988;15.470;2022-11-20T13:40:57;9.50;93.80
22006;DHT22;11167;46.988;15.470;2022-11-20T13:45:26;9.70;93.80
22006;DHT22;11167;46.988;15.470;2022-11-20T13:47:29;9.70;93.80
22006;DHT22;11167;46.988;15.470;2022-11-20T13:49:38;9.80;93.90
22006;DHT22;11167;46.988;15.470;2022-11-20T13:51:48;9.80;93.80
22006;DHT22;11167;46.988;15.470;2022-11-20T13:56:52;9.90;93.90
22006;DHT22;11167;46.988;15.470;2022-11-20T13:59:02;9.90;94.20
22006;DHT22;11167;46.988;15.470;2022-11-20T14:01:11;10.00;93.80
22006;DHT22;11167;46.988;15.470;2022-11-20T14:03:30;10.10;93.90
22006;DHT22;11167;46.988;15.470;2022-11-20T14:05:49;10.10;93.90
22006;DHT22;11167;46.988;15.470;2022-11-20T14:07:51;10.20;93.90
22006;DHT22;11167;46.988;15.470;2022-11-20T14:09:55;10.20;93.80
22006;DHT22;11167;46.988;15.470;2022-11-20T14:11:57;10.20;93.80
22006;DHT22;11167;46.988;15.470;2022-11-20T14:14:04;10.30;93.90
22006;DHT22;11167;46.988;15.470;2022-11-20T14:16:06;10.30;93.80
22006;DHT22;11167;46.988;15.470;2022-11-20T14:18:27;10.40;93.80
22006;DHT22;11167;46.988;15.470;2022-11-20T14:20:29;10.40;93.80
22006;DHT22;11167;46.988;15.470;2022-11-20T14:22:32;10.40;93.70
22006;DHT22;11167;46.988;15.470;2022-11-20T14:24:33;10.40;93.70
22006;DHT22;11167;46.988;15.470;2022-11-20T14:26:35;10.50;93.70
22006;DHT22;11167;46.988;15.470;2022-11-20T14:28:39;10.50;93.70
22006;DHT22;11167;46.988;15.470;2022-11-20T14:30:47;10.50;93.60